createdAt,value
2022-11-13T00:01:27.726Z,48.97
2022-11-13T00:04:49.228Z,45.53
2022-11-13T00:08:10.743Z,42.90
2022-11-13T00:11:32.482Z,39.40
2022-11-13T00:14:53.698Z,52.30
2022-11-13T00:18:15.379Z,56.87
2022-11-13T00:21:37.284Z,46.47
2022-11-13T00:24:58.655Z,43.65
2022-11-13T00:28:20.212Z,44.55
2022-11-13T00:31:41.794Z,42.05
2022-11-13T00:35:03.752Z,41.57
2022-11-13T00:38:25.356Z,39.60
2022-11-13T00:41:47.095Z,39.65
2022-11-13T00:45:09.174Z,38.45
2022-11-13T00:48:30.755Z,39.58
2022-11-13T00:51:52.138Z,34.87
2022-11-13T00:55:13.606Z,31.33
2022-11-13T00:58:35.074Z,32.35
2022-11-13T01:01:56.720Z,31.08
2022-11-13T01:05:18.213Z,31.38
2022-11-13T01:08:39.935Z,29.80
2022-11-13T01:12:01.108Z,32.13
2022-11-13T01:15:22.659Z,30.92
2022-11-13T01:18:44.095Z,31.17
2022-11-13T01:22:05.547Z,31.27
2022-11-13T01:25:27.372Z,32.40
2022-11-13T01:28:49.001Z,31.58
2022-11-13T01:32:10.524Z,29.52
2022-11-13T01:35:32.039Z,30.17
2022-11-13T01:38:53.816Z,30.67
2022-11-13T01:42:15.067Z,29.40
2022-11-13T01:45:58.227Z,29.05
2022-11-13T01:49:30.290Z,29.33
2022-11-13T01:52:51.645Z,27.70
2022-11-13T01:56:13.215Z,26.00
2022-11-13T01:59:36.388Z,24.93
2022-11-13T02:02:57.576Z,25.70
2022-11-13T02:06:19.676Z,26.90
2022-11-13T02:09:43.060Z,25.35
2022-11-13T02:13:04.244Z,25.08
2022-11-13T02:16:25.786Z,27.13
2022-11-13T02:19:50.133Z,30.38
2022-11-13T02:23:49.602Z,26.80
2022-11-13T02:27:27.497Z,29.00
2022-11-13T02:30:48.873Z,32.35
2022-11-13T02:34:10.452Z,29.20
2022-11-13T02:37:31.906Z,24.58
2022-11-13T02:40:53.315Z,23.92
2022-11-13T02:44:14.906Z,22.42
2022-11-13T02:47:36.020Z,20.40
2022-11-13T02:50:58.143Z,19.13
2022-11-13T02:54:20.767Z,19.08
2022-11-13T02:57:42.000Z,20.67
2022-11-13T03:01:04.419Z,19.55
2022-11-13T03:04:31.519Z,21.00
2022-11-13T03:08:06.837Z,19.13
2022-11-13T03:11:27.905Z,20.05
2022-11-13T03:14:49.261Z,19.83
2022-11-13T03:18:12.043Z,19.83
2022-11-13T03:21:33.532Z,19.42
2022-11-13T03:24:54.933Z,19.43
2022-11-13T03:28:16.414Z,19.10
2022-11-13T03:31:37.852Z,19.50
2022-11-13T03:34:59.182Z,17.55
2022-11-13T03:38:20.731Z,18.65
2022-11-13T03:41:41.848Z,18.17
2022-11-13T03:45:03.473Z,18.45
2022-11-13T03:48:24.882Z,18.48
2022-11-13T03:51:46.365Z,18.42
2022-11-13T03:55:08.299Z,18.75
2022-11-13T03:58:29.787Z,18.47
2022-11-13T04:01:51.574Z,17.38
2022-11-13T04:05:13.103Z,18.75
2022-11-13T04:08:34.416Z,17.55
2022-11-13T04:11:55.748Z,17.85
2022-11-13T04:15:17.389Z,16.30
2022-11-13T04:18:38.752Z,17.15
2022-11-13T04:22:00.501Z,18.33
2022-11-13T04:25:22.106Z,18.65
2022-11-13T04:28:43.616Z,19.23
2022-11-13T04:32:05.450Z,18.63
2022-11-13T04:35:27.061Z,19.98
2022-11-13T04:38:48.358Z,20.58
2022-11-13T04:42:29.435Z,20.08
2022-11-13T04:45:52.965Z,19.33
2022-11-13T04:49:14.425Z,19.40
2022-11-13T04:52:35.878Z,20.15
2022-11-13T04:55:57.312Z,22.60
2022-11-13T04:59:18.756Z,19.75
2022-11-13T05:02:40.084Z,20.38
2022-11-13T05:06:08.658Z,18.60
2022-11-13T05:09:30.060Z,18.65
2022-11-13T05:12:51.495Z,19.08
2022-11-13T05:16:13.678Z,19.50
2022-11-13T05:19:34.865Z,18.38
2022-11-13T05:22:56.125Z,18.80
2022-11-13T05:26:17.836Z,19.33
2022-11-13T05:29:38.992Z,20.33
2022-11-13T05:33:00.644Z,18.55
2022-11-13T05:36:22.323Z,19.75
2022-11-13T05:39:43.745Z,18.80
2022-11-13T05:43:05.130Z,18.70
2022-11-13T05:46:28.108Z,19.02
2022-11-13T05:49:49.569Z,19.38
2022-11-13T05:53:10.996Z,17.52
2022-11-13T05:56:35.870Z,17.87
2022-11-13T05:59:58.462Z,17.50
2022-11-13T06:03:19.767Z,16.80
2022-11-13T06:06:42.400Z,16.92
2022-11-13T06:10:04.402Z,16.45
2022-11-13T06:13:25.779Z,17.43
2022-11-13T06:16:47.221Z,20.42
2022-11-13T06:20:09.345Z,17.23
2022-11-13T06:23:31.818Z,16.50
2022-11-13T06:26:53.758Z,17.80
2022-11-13T06:30:15.150Z,18.40
2022-11-13T06:33:36.389Z,17.85
2022-11-13T06:36:57.590Z,17.40
2022-11-13T06:40:19.034Z,15.20
2022-11-13T06:43:40.801Z,16.42
2022-11-13T06:47:02.143Z,14.23
2022-11-13T06:50:23.763Z,15.48
2022-11-13T06:53:45.451Z,15.70
2022-11-13T06:57:07.097Z,14.50
2022-11-13T07:00:33.697Z,13.90
2022-11-13T07:03:57.704Z,14.03
2022-11-13T07:07:19.003Z,14.40
2022-11-13T07:10:40.538Z,14.73
2022-11-13T07:14:02.119Z,13.80
2022-11-13T07:17:23.487Z,14.80
2022-11-13T07:20:44.968Z,14.37
2022-11-13T07:24:06.557Z,14.52
2022-11-13T07:27:27.784Z,14.82
2022-11-13T07:30:49.180Z,14.63
2022-11-13T07:34:10.713Z,19.23
2022-11-13T07:37:32.156Z,18.17
2022-11-13T07:40:53.607Z,15.50
2022-11-13T07:44:27.193Z,14.68
2022-11-13T07:48:01.989Z,17.92
2022-11-13T07:51:23.410Z,14.95
2022-11-13T07:54:44.818Z,15.33
2022-11-13T07:58:06.511Z,15.82
2022-11-13T08:01:27.825Z,15.75
2022-11-13T08:04:49.211Z,13.77
2022-11-13T08:08:14.373Z,14.13
2022-11-13T08:11:36.228Z,14.10
2022-11-13T08:14:57.812Z,13.50
2022-11-13T08:18:19.203Z,14.57
2022-11-13T08:21:40.536Z,13.90
2022-11-13T08:25:02.109Z,19.23
2022-11-13T08:28:23.851Z,19.03
2022-11-13T08:31:44.992Z,14.70
2022-11-13T08:35:06.772Z,14.82
2022-11-13T08:38:28.529Z,14.75
2022-11-13T08:41:50.289Z,13.35
2022-11-13T08:45:12.085Z,14.23
2022-11-13T08:48:33.596Z,14.05
2022-11-13T08:51:54.747Z,14.65
2022-11-13T08:55:16.324Z,13.40
2022-11-13T08:58:37.572Z,13.30
2022-11-13T09:01:59.979Z,16.83
2022-11-13T09:05:21.513Z,13.70
2022-11-13T09:08:42.818Z,13.40
2022-11-13T09:12:04.459Z,11.85
2022-11-13T09:15:26.016Z,12.18
2022-11-13T09:18:51.657Z,13.40
2022-11-13T09:22:13.282Z,12.35
2022-11-13T09:25:37.662Z,12.90
2022-11-13T09:28:59.615Z,12.93
2022-11-13T09:32:21.146Z,13.73
2022-11-13T09:35:43.130Z,13.20
2022-11-13T09:39:05.115Z,13.52
2022-11-13T09:42:27.488Z,15.05
2022-11-13T09:45:49.435Z,15.23
2022-11-13T09:49:16.564Z,14.18
2022-11-13T09:52:39.762Z,16.47
2022-11-13T09:56:27.465Z,13.80
2022-11-13T09:59:57.238Z,16.48
2022-11-13T10:07:23.054Z,14.68
2022-11-13T10:10:55.505Z,14.80
2022-11-13T10:14:30.287Z,14.05
2022-11-13T10:17:59.269Z,14.70
2022-11-13T10:21:34.996Z,15.43
2022-11-13T10:25:19.593Z,15.98
2022-11-13T10:28:50.473Z,18.33
2022-11-13T10:32:18.925Z,17.45
2022-11-13T10:36:15.720Z,16.05
2022-11-13T10:39:46.249Z,14.20
2022-11-13T10:43:14.394Z,14.23
2022-11-13T10:46:35.983Z,16.23
2022-11-13T10:49:57.477Z,15.43
2022-11-13T10:53:18.948Z,17.30
2022-11-13T10:56:40.112Z,16.50
2022-11-13T11:00:01.810Z,17.40
2022-11-13T11:03:24.661Z,17.20
2022-11-13T11:10:31.152Z,17.95
2022-11-13T11:13:52.416Z,19.48
2022-11-13T11:17:14.288Z,16.45
2022-11-13T11:20:54.909Z,15.10
2022-11-13T11:24:29.906Z,17.42
2022-11-13T11:28:00.205Z,15.82
2022-11-13T11:31:35.186Z,17.17
2022-11-13T11:35:06.897Z,17.25
2022-11-13T11:38:33.329Z,16.87
2022-11-13T11:42:00.815Z,16.20
2022-11-13T11:45:26.644Z,18.45
2022-11-13T11:48:47.941Z,18.17
2022-11-13T11:52:19.536Z,18.63
2022-11-13T11:56:10.490Z,18.63
2022-11-13T12:00:03.299Z,18.88
2022-11-13T12:03:30.425Z,19.85
2022-11-13T12:07:13.878Z,18.42
2022-11-13T12:10:47.373Z,18.75
2022-11-13T12:14:08.852Z,19.13
2022-11-13T12:17:48.646Z,20.45
2022-11-13T12:21:23.446Z,21.15
2022-11-13T12:25:36.334Z,21.33
2022-11-13T12:29:35.915Z,24.45
2022-11-13T12:33:21.822Z,24.73
2022-11-13T12:36:43.654Z,22.15
2022-11-13T12:40:13.643Z,21.05
2022-11-13T12:43:49.942Z,21.48
2022-11-13T12:47:11.431Z,21.77
2022-11-13T12:50:33.411Z,22.13
2022-11-13T12:53:55.979Z,23.27
2022-11-13T12:57:27.232Z,21.90
2022-11-13T13:01:03.774Z,20.73
2022-11-13T13:04:49.440Z,22.00
2022-11-13T13:08:29.166Z,19.90
2022-11-13T13:12:04.269Z,22.00
2022-11-13T13:15:35.090Z,22.63
2022-11-13T13:19:21.172Z,22.85
2022-11-13T13:22:42.483Z,23.40
2022-11-13T13:26:23.088Z,23.00
2022-11-13T13:29:44.469Z,23.73
2022-11-13T13:33:27.130Z,31.73
2022-11-13T13:37:14.222Z,26.05
2022-11-13T13:40:50.510Z,27.10
2022-11-13T13:44:30.669Z,27.27
2022-11-13T13:47:53.609Z,29.63
2022-11-13T13:51:28.368Z,29.00
2022-11-13T13:54:49.773Z,29.02
2022-11-13T13:58:15.066Z,29.05
2022-11-13T14:01:36.709Z,27.70
2022-11-13T14:04:58.361Z,28.60
2022-11-13T14:08:20.897Z,27.08
2022-11-13T14:11:42.281Z,25.83
2022-11-13T14:15:27.274Z,24.85
2022-11-13T14:18:48.913Z,28.30
2022-11-13T14:22:11.356Z,30.15
2022-11-13T14:25:32.970Z,30.73
2022-11-13T14:28:59.294Z,31.83
2022-11-13T14:32:34.087Z,33.38
2022-11-13T14:35:56.129Z,30.83
2022-11-13T14:39:28.471Z,30.23
2022-11-13T14:42:58.080Z,35.72
2022-11-13T14:46:28.750Z,33.75
2022-11-13T14:49:50.114Z,31.25
2022-11-13T14:53:11.777Z,32.33
2022-11-13T14:56:34.250Z,30.73
2022-11-13T14:59:55.850Z,31.55
2022-11-13T15:03:17.513Z,29.95
2022-11-13T15:06:40.285Z,30.95
2022-11-13T15:10:01.568Z,33.37
2022-11-13T15:13:22.967Z,32.42
2022-11-13T15:16:48.025Z,34.70
2022-11-13T15:20:36.740Z,33.40
2022-11-13T15:23:58.540Z,32.00
2022-11-13T15:27:20.478Z,31.27
2022-11-13T15:30:42.014Z,30.98
2022-11-13T15:34:03.778Z,32.58
2022-11-13T15:37:25.588Z,31.75
2022-11-13T15:40:47.125Z,45.97
2022-11-13T15:44:13.158Z,44.20
2022-11-13T15:47:36.240Z,178.10
2022-11-13T15:50:57.800Z,198.85
2022-11-13T15:54:22.859Z,85.03
2022-11-13T15:57:44.396Z,108.53
2022-11-13T16:01:06.152Z,80.30
2022-11-13T16:04:50.429Z,85.07
2022-11-13T16:08:13.657Z,97.07
2022-11-13T16:11:35.160Z,63.80
2022-11-13T16:14:56.434Z,58.30
2022-11-13T16:18:23.661Z,107.97
2022-11-13T16:21:44.924Z,65.65
2022-11-13T16:25:07.348Z,74.65
2022-11-13T16:28:31.470Z,75.85
2022-11-13T16:31:55.509Z,81.85
2022-11-13T16:35:18.647Z,147.47
2022-11-13T16:38:40.352Z,166.25
2022-11-13T16:42:01.925Z,175.48
2022-11-13T16:45:23.266Z,167.70
2022-11-13T16:48:45.058Z,157.57
2022-11-13T16:52:06.432Z,119.93
2022-11-13T16:55:27.811Z,92.00
2022-11-13T16:58:49.768Z,85.82
2022-11-13T17:02:16.343Z,86.82
2022-11-13T17:05:37.436Z,75.15
2022-11-13T17:08:59.820Z,68.23
2022-11-13T17:12:22.834Z,73.82
2022-11-13T17:15:44.320Z,71.95
2022-11-13T17:19:06.613Z,67.97
2022-11-13T17:22:28.121Z,79.32
2022-11-13T17:25:49.759Z,84.07
2022-11-13T17:29:11.133Z,81.90
2022-11-13T17:32:32.759Z,84.88
2022-11-13T17:35:55.175Z,103.22
2022-11-13T17:39:16.685Z,86.90
2022-11-13T17:42:37.861Z,83.67
2022-11-13T17:45:59.260Z,84.72
2022-11-13T17:49:21.212Z,105.57
2022-11-13T17:52:42.761Z,84.25
2022-11-13T17:56:08.033Z,71.50
2022-11-13T17:59:29.597Z,68.63
2022-11-13T18:02:51.046Z,61.78
2022-11-13T18:06:19.527Z,56.47
2022-11-13T18:09:41.496Z,56.55
2022-11-13T18:13:02.882Z,53.22
2022-11-13T18:16:30.713Z,58.73
2022-11-13T18:19:55.968Z,58.00
2022-11-13T18:23:20.271Z,66.60
2022-11-13T18:26:41.882Z,64.45
2022-11-13T18:30:03.656Z,62.97
2022-11-13T18:33:24.999Z,51.40
2022-11-13T18:36:46.221Z,51.05
2022-11-13T18:40:08.375Z,50.45
2022-11-13T18:43:29.899Z,48.88
2022-11-13T18:46:51.494Z,44.97
2022-11-13T18:50:12.982Z,44.07
2022-11-13T18:53:34.422Z,47.03
2022-11-13T18:56:56.013Z,51.83
2022-11-13T19:00:18.227Z,61.55
2022-11-13T19:03:50.833Z,47.75
2022-11-13T19:07:21.412Z,43.83
2022-11-13T19:10:42.958Z,44.85
2022-11-13T19:14:04.533Z,41.90
2022-11-13T19:17:26.199Z,34.38
2022-11-13T19:20:47.622Z,34.78
2022-11-13T19:24:09.815Z,33.13
2022-11-13T19:27:30.856Z,38.20
2022-11-13T19:30:54.834Z,32.20
2022-11-13T19:34:15.939Z,25.40
2022-11-13T19:37:37.424Z,22.08
2022-11-13T19:40:58.887Z,19.37
2022-11-13T19:44:20.360Z,19.73
2022-11-13T19:47:42.024Z,23.90
2022-11-13T19:51:04.633Z,22.83
2022-11-13T19:54:26.043Z,26.65
2022-11-13T19:57:47.516Z,24.33
2022-11-13T20:01:19.847Z,23.90
2022-11-13T20:04:41.440Z,21.63
2022-11-13T20:08:03.155Z,22.08
2022-11-13T20:11:24.375Z,23.65
2022-11-13T20:14:45.993Z,23.80
2022-11-13T20:18:07.536Z,21.63
2022-11-13T20:21:30.654Z,22.60
2022-11-13T20:24:52.118Z,23.30
2022-11-13T20:28:13.471Z,31.65
2022-11-13T20:31:34.835Z,30.57
2022-11-13T20:34:56.236Z,34.38
2022-11-13T20:38:17.695Z,31.08
2022-11-13T20:41:39.158Z,26.90
2022-11-13T20:45:01.474Z,29.60
2022-11-13T20:48:23.057Z,26.87
2022-11-13T20:51:44.628Z,24.63
2022-11-13T20:55:06.505Z,23.92
2022-11-13T20:58:28.094Z,19.25
2022-11-13T21:01:49.666Z,17.00
2022-11-13T21:05:11.110Z,17.93
2022-11-13T21:08:32.594Z,16.63
2022-11-13T21:11:54.188Z,16.30
2022-11-13T21:15:15.706Z,15.75
2022-11-13T21:18:37.285Z,16.83
2022-11-13T21:21:58.493Z,16.50
2022-11-13T21:25:22.030Z,15.82
2022-11-13T21:28:43.612Z,15.52
2022-11-13T21:32:05.279Z,16.50
2022-11-13T21:35:30.141Z,18.17
2022-11-13T21:38:52.963Z,15.67
2022-11-13T21:42:14.214Z,15.00
2022-11-13T21:45:35.704Z,14.68
2022-11-13T21:49:02.777Z,15.75
2022-11-13T21:52:24.112Z,16.77
2022-11-13T21:55:51.890Z,14.83
2022-11-13T21:59:13.147Z,15.05
2022-11-13T22:02:34.803Z,14.93
2022-11-13T22:06:16.056Z,15.05
2022-11-13T22:09:38.230Z,15.35
2022-11-13T22:12:59.705Z,15.50
2022-11-13T22:16:21.530Z,15.35
2022-11-13T22:19:42.833Z,14.65
2022-11-13T22:23:05.973Z,14.77
2022-11-13T22:26:28.076Z,15.48
2022-11-13T22:29:49.257Z,14.60
2022-11-13T22:33:10.794Z,14.77
2022-11-13T22:36:34.344Z,13.23
2022-11-13T22:39:55.850Z,14.93
2022-11-13T22:43:17.265Z,14.57
2022-11-13T22:46:38.578Z,15.27
2022-11-13T22:50:00.723Z,14.80
2022-11-13T22:53:21.951Z,14.40
2022-11-13T22:56:43.467Z,14.15
2022-11-13T23:00:09.353Z,15.50
2022-11-13T23:03:31.166Z,14.50
2022-11-13T23:06:52.995Z,15.05
2022-11-13T23:10:14.531Z,16.33
2022-11-13T23:13:35.843Z,14.05
2022-11-13T23:16:57.263Z,15.63
2022-11-13T23:20:18.829Z,14.93
2022-11-13T23:23:41.504Z,14.85
2022-11-13T23:27:03.172Z,15.15
2022-11-13T23:30:24.707Z,14.23
2022-11-13T23:33:46.505Z,15.68
2022-11-13T23:37:08.092Z,14.67
2022-11-13T23:40:29.658Z,14.95
2022-11-13T23:44:08.224Z,14.13
2022-11-13T23:47:30.759Z,14.07
2022-11-13T23:50:52.432Z,13.88
2022-11-13T23:54:13.934Z,14.47
2022-11-13T23:57:35.505Z,13.90
